sensor_id;sensor_type;location;lat;lon;timestamp;P1;durP1;ratioP1;P2;durP2;ratioP2
7545;SDS011;3814;51.454;12.616;2022-09-09T00:00:22;2.90;;;1.85;;
7545;SDS011;3814;51.454;12.616;2022-09-09T00:02:55;3.45;;;1.90;;
7545;SDS011;3814;51.454;12.616;2022-09-09T00:08:18;3.80;;;2.00;;
7545;SDS011;3814;51.454;12.616;2022-09-09T00:10:45;2.58;;;1.83;;
7545;SDS011;3814;51.454;12.616;2022-09-09T00:13:28;2.40;;;1.80;;
7545;SDS011;3814;51.454;12.616;2022-09-09T00:16:00;2.92;;;2.10;;
7545;SDS011;3814;51.454;12.616;2022-09-09T00:21:12;3.00;;;1.92;;
7545;SDS011;3814;51.454;12.616;2022-09-09T00:23:44;3.20;;;1.90;;
7545;SDS011;3814;51.454;12.616;2022-09-09T00:31:48;4.32;;;1.95;;
7545;SDS011;3814;51.454;12.616;2022-09-09T00:34:17;3.58;;;2.00;;
7545;SDS011;3814;51.454;12.616;2022-09-09T00:36:44;3.40;;;2.20;;
7545;SDS011;3814;51.454;12.616;2022-09-09T00:39:17;3.65;;;2.10;;
7545;SDS011;3814;51.454;12.616;2022-09-09T00:47:39;3.08;;;2.15;;
7545;SDS011;3814;51.454;12.616;2022-09-09T00:55:20;3.80;;;1.95;;
7545;SDS011;3814;51.454;12.616;2022-09-09T00:58:08;4.80;;;2.10;;
7545;SDS011;3814;51.454;12.616;2022-09-09T01:03:16;3.58;;;2.47;;
7545;SDS011;3814;51.454;12.616;2022-09-09T01:17:23;3.45;;;2.10;;
7545;SDS011;3814;51.454;12.616;2022-09-09T01:19:55;3.83;;;1.88;;
7545;SDS011;3814;51.454;12.616;2022-09-09T01:22:37;3.10;;;2.40;;
7545;SDS011;3814;51.454;12.616;2022-09-09T01:25:21;3.35;;;2.30;;
7545;SDS011;3814;51.454;12.616;2022-09-09T01:27:53;4.32;;;1.92;;
7545;SDS011;3814;51.454;12.616;2022-09-09T01:30:21;3.03;;;2.13;;
7545;SDS011;3814;51.454;12.616;2022-09-09T01:32:52;4.55;;;2.38;;
7545;SDS011;3814;51.454;12.616;2022-09-09T01:38:07;3.10;;;2.20;;
7545;SDS011;3814;51.454;12.616;2022-09-09T01:40:32;4.28;;;2.40;;
7545;SDS011;3814;51.454;12.616;2022-09-09T01:42:58;4.78;;;2.35;;
7545;SDS011;3814;51.454;12.616;2022-09-09T01:45:24;3.05;;;2.20;;
7545;SDS011;3814;51.454;12.616;2022-09-09T01:47:50;3.17;;;2.30;;
7545;SDS011;3814;51.454;12.616;2022-09-09T01:50:19;3.42;;;2.25;;
7545;SDS011;3814;51.454;12.616;2022-09-09T01:52:46;5.05;;;2.60;;
7545;SDS011;3814;51.454;12.616;2022-09-09T01:55:13;4.65;;;2.60;;
7545;SDS011;3814;51.454;12.616;2022-09-09T01:57:43;3.78;;;2.50;;
7545;SDS011;3814;51.454;12.616;2022-09-09T02:00:25;4.40;;;2.42;;
7545;SDS011;3814;51.454;12.616;2022-09-09T02:02:55;3.45;;;2.42;;
7545;SDS011;3814;51.454;12.616;2022-09-09T02:05:37;5.75;;;2.45;;
7545;SDS011;3814;51.454;12.616;2022-09-09T02:08:06;4.43;;;2.50;;
7545;SDS011;3814;51.454;12.616;2022-09-09T02:10:55;4.50;;;2.80;;
7545;SDS011;3814;51.454;12.616;2022-09-09T02:13:20;3.88;;;2.72;;
7545;SDS011;3814;51.454;12.616;2022-09-09T02:15:57;4.32;;;2.60;;
7545;SDS011;3814;51.454;12.616;2022-09-09T02:18:34;5.47;;;2.45;;
7545;SDS011;3814;51.454;12.616;2022-09-09T02:21:02;8.00;;;2.80;;
7545;SDS011;3814;51.454;12.616;2022-09-09T02:23:27;3.85;;;2.28;;
7545;SDS011;3814;51.454;12.616;2022-09-09T02:25:53;5.50;;;2.50;;
7545;SDS011;3814;51.454;12.616;2022-09-09T02:28:21;4.32;;;2.38;;
7545;SDS011;3814;51.454;12.616;2022-09-09T02:30:48;3.35;;;2.25;;
7545;SDS011;3814;51.454;12.616;2022-09-09T02:33:18;4.45;;;2.42;;
7545;SDS011;3814;51.454;12.616;2022-09-09T02:35:44;4.30;;;2.40;;
7545;SDS011;3814;51.454;12.616;2022-09-09T02:38:10;4.72;;;2.38;;
7545;SDS011;3814;51.454;12.616;2022-09-09T02:40:37;5.22;;;2.58;;
7545;SDS011;3814;51.454;12.616;2022-09-09T02:43:03;3.20;;;2.30;;
7545;SDS011;3814;51.454;12.616;2022-09-09T02:45:33;4.43;;;2.00;;
7545;SDS011;3814;51.454;12.616;2022-09-09T02:50:59;6.40;;;2.50;;
7545;SDS011;3814;51.454;12.616;2022-09-09T02:55:59;6.53;;;2.28;;
7545;SDS011;3814;51.454;12.616;2022-09-09T02:58:30;4.15;;;2.20;;
7545;SDS011;3814;51.454;12.616;2022-09-09T03:00:55;6.82;;;2.50;;
7545;SDS011;3814;51.454;12.616;2022-09-09T03:03:22;3.58;;;2.20;;
7545;SDS011;3814;51.454;12.616;2022-09-09T03:05:48;6.00;;;2.10;;
7545;SDS011;3814;51.454;12.616;2022-09-09T03:08:14;4.05;;;2.13;;
7545;SDS011;3814;51.454;12.616;2022-09-09T03:10:39;4.82;;;1.98;;
7545;SDS011;3814;51.454;12.616;2022-09-09T03:13:05;2.85;;;2.13;;
7545;SDS011;3814;51.454;12.616;2022-09-09T03:15:31;3.75;;;1.92;;
7545;SDS011;3814;51.454;12.616;2022-09-09T03:17:57;3.17;;;1.92;;
7545;SDS011;3814;51.454;12.616;2022-09-09T03:20:24;3.47;;;1.98;;
7545;SDS011;3814;51.454;12.616;2022-09-09T03:22:50;3.60;;;1.90;;
7545;SDS011;3814;51.454;12.616;2022-09-09T03:25:16;2.40;;;1.80;;
7545;SDS011;3814;51.454;12.616;2022-09-09T03:27:42;3.05;;;1.80;;
7545;SDS011;3814;51.454;12.616;2022-09-09T03:30:08;4.05;;;1.98;;
7545;SDS011;3814;51.454;12.616;2022-09-09T03:32:34;4.43;;;1.98;;
7545;SDS011;3814;51.454;12.616;2022-09-09T03:34:59;3.10;;;2.05;;
7545;SDS011;3814;51.454;12.616;2022-09-09T03:37:24;4.82;;;2.10;;
7545;SDS011;3814;51.454;12.616;2022-09-09T03:39:50;2.42;;;1.95;;
7545;SDS011;3814;51.454;12.616;2022-09-09T03:42:15;4.00;;;1.85;;
7545;SDS011;3814;51.454;12.616;2022-09-09T03:44:43;4.35;;;1.80;;
7545;SDS011;3814;51.454;12.616;2022-09-09T03:47:11;5.72;;;2.20;;
7545;SDS011;3814;51.454;12.616;2022-09-09T03:49:36;3.45;;;1.92;;
7545;SDS011;3814;51.454;12.616;2022-09-09T03:52:01;3.75;;;1.95;;
7545;SDS011;3814;51.454;12.616;2022-09-09T03:54:27;4.25;;;1.90;;
7545;SDS011;3814;51.454;12.616;2022-09-09T03:56:52;6.05;;;1.77;;
7545;SDS011;3814;51.454;12.616;2022-09-09T03:59:18;4.88;;;1.90;;
7545;SDS011;3814;51.454;12.616;2022-09-09T04:01:44;5.43;;;2.00;;
7545;SDS011;3814;51.454;12.616;2022-09-09T04:04:10;3.03;;;1.90;;
7545;SDS011;3814;51.454;12.616;2022-09-09T04:06:37;5.25;;;2.00;;
7545;SDS011;3814;51.454;12.616;2022-09-09T04:09:02;6.57;;;1.80;;
7545;SDS011;3814;51.454;12.616;2022-09-09T04:11:28;4.50;;;1.80;;
7545;SDS011;3814;51.454;12.616;2022-09-09T04:13:53;4.57;;;1.52;;
7545;SDS011;3814;51.454;12.616;2022-09-09T04:16:19;5.60;;;1.67;;
7545;SDS011;3814;51.454;12.616;2022-09-09T04:18:45;4.28;;;1.98;;
7545;SDS011;3814;51.454;12.616;2022-09-09T04:21:10;3.67;;;1.60;;
7545;SDS011;3814;51.454;12.616;2022-09-09T04:23:37;2.35;;;1.58;;
7545;SDS011;3814;51.454;12.616;2022-09-09T04:26:02;4.03;;;1.90;;
7545;SDS011;3814;51.454;12.616;2022-09-09T04:28:29;2.83;;;1.70;;
7545;SDS011;3814;51.454;12.616;2022-09-09T04:30:55;5.28;;;1.95;;
7545;SDS011;3814;51.454;12.616;2022-09-09T04:33:22;5.45;;;1.80;;
7545;SDS011;3814;51.454;12.616;2022-09-09T04:35:49;3.58;;;1.60;;
7545;SDS011;3814;51.454;12.616;2022-09-09T04:38:15;3.45;;;1.45;;
7545;SDS011;3814;51.454;12.616;2022-09-09T04:40:48;4.47;;;1.70;;
7545;SDS011;3814;51.454;12.616;2022-09-09T04:43:14;2.20;;;1.52;;
7545;SDS011;3814;51.454;12.616;2022-09-09T04:45:39;4.38;;;1.58;;
7545;SDS011;3814;51.454;12.616;2022-09-09T04:48:05;2.70;;;1.67;;
7545;SDS011;3814;51.454;12.616;2022-09-09T04:50:31;4.00;;;1.70;;
7545;SDS011;3814;51.454;12.616;2022-09-09T04:52:59;3.75;;;1.40;;
7545;SDS011;3814;51.454;12.616;2022-09-09T04:55:25;5.38;;;1.77;;
7545;SDS011;3814;51.454;12.616;2022-09-09T04:57:51;3.55;;;1.70;;
7545;SDS011;3814;51.454;12.616;2022-09-09T05:00:16;2.55;;;1.60;;
7545;SDS011;3814;51.454;12.616;2022-09-09T05:02:42;2.92;;;1.52;;
7545;SDS011;3814;51.454;12.616;2022-09-09T05:05:07;3.05;;;1.52;;
7545;SDS011;3814;51.454;12.616;2022-09-09T05:07:33;5.10;;;1.70;;
7545;SDS011;3814;51.454;12.616;2022-09-09T05:09:58;3.97;;;1.60;;
7545;SDS011;3814;51.454;12.616;2022-09-09T05:12:24;2.70;;;1.40;;
7545;SDS011;3814;51.454;12.616;2022-09-09T05:14:51;5.35;;;1.60;;
7545;SDS011;3814;51.454;12.616;2022-09-09T05:17:16;4.88;;;1.63;;
7545;SDS011;3814;51.454;12.616;2022-09-09T05:19:42;2.92;;;1.50;;
7545;SDS011;3814;51.454;12.616;2022-09-09T05:22:09;2.63;;;1.40;;
7545;SDS011;3814;51.454;12.616;2022-09-09T05:24:34;3.22;;;1.52;;
7545;SDS011;3814;51.454;12.616;2022-09-09T05:27:00;2.92;;;1.58;;
7545;SDS011;3814;51.454;12.616;2022-09-09T05:29:27;3.80;;;1.60;;
7545;SDS011;3814;51.454;12.616;2022-09-09T05:31:52;2.53;;;1.73;;
7545;SDS011;3814;51.454;12.616;2022-09-09T05:34:17;2.75;;;1.48;;
7545;SDS011;3814;51.454;12.616;2022-09-09T05:36:43;4.95;;;1.67;;
7545;SDS011;3814;51.454;12.616;2022-09-09T05:39:08;4.43;;;1.48;;
7545;SDS011;3814;51.454;12.616;2022-09-09T05:41:34;4.07;;;1.70;;
7545;SDS011;3814;51.454;12.616;2022-09-09T05:44:00;2.50;;;1.45;;
7545;SDS011;3814;51.454;12.616;2022-09-09T05:46:26;2.83;;;1.50;;
7545;SDS011;3814;51.454;12.616;2022-09-09T05:48:51;3.28;;;1.63;;
7545;SDS011;3814;51.454;12.616;2022-09-09T05:51:19;4.85;;;1.48;;
7545;SDS011;3814;51.454;12.616;2022-09-09T05:53:49;3.20;;;1.75;;
7545;SDS011;3814;51.454;12.616;2022-09-09T05:56:19;3.47;;;1.63;;
7545;SDS011;3814;51.454;12.616;2022-09-09T05:58:47;3.83;;;1.30;;
7545;SDS011;3814;51.454;12.616;2022-09-09T06:01:14;3.70;;;1.50;;
7545;SDS011;3814;51.454;12.616;2022-09-09T06:03:40;5.03;;;1.58;;
7545;SDS011;3814;51.454;12.616;2022-09-09T06:06:08;3.60;;;1.50;;
7545;SDS011;3814;51.454;12.616;2022-09-09T06:08:35;3.45;;;1.42;;
7545;SDS011;3814;51.454;12.616;2022-09-09T06:11:06;3.35;;;1.67;;
7545;SDS011;3814;51.454;12.616;2022-09-09T06:13:33;2.83;;;1.48;;
7545;SDS011;3814;51.454;12.616;2022-09-09T06:15:58;2.55;;;1.33;;
7545;SDS011;3814;51.454;12.616;2022-09-09T06:18:25;3.53;;;1.50;;
7545;SDS011;3814;51.454;12.616;2022-09-09T06:20:57;3.80;;;1.60;;
7545;SDS011;3814;51.454;12.616;2022-09-09T06:23:26;4.47;;;1.58;;
7545;SDS011;3814;51.454;12.616;2022-09-09T06:26:05;3.28;;;1.58;;
7545;SDS011;3814;51.454;12.616;2022-09-09T06:28:33;2.90;;;1.70;;
7545;SDS011;3814;51.454;12.616;2022-09-09T06:30:59;3.97;;;1.67;;
7545;SDS011;3814;51.454;12.616;2022-09-09T06:33:25;5.57;;;1.80;;
7545;SDS011;3814;51.454;12.616;2022-09-09T06:35:52;3.10;;;1.50;;
7545;SDS011;3814;51.454;12.616;2022-09-09T06:38:18;4.25;;;1.60;;
7545;SDS011;3814;51.454;12.616;2022-09-09T06:40:50;3.55;;;1.80;;
7545;SDS011;3814;51.454;12.616;2022-09-09T06:43:16;2.45;;;1.40;;
7545;SDS011;3814;51.454;12.616;2022-09-09T06:45:42;3.58;;;1.50;;
7545;SDS011;3814;51.454;12.616;2022-09-09T06:48:08;5.70;;;1.50;;
7545;SDS011;3814;51.454;12.616;2022-09-09T06:50:33;3.83;;;1.50;;
7545;SDS011;3814;51.454;12.616;2022-09-09T06:52:59;4.10;;;1.50;;
7545;SDS011;3814;51.454;12.616;2022-09-09T06:55:25;2.42;;;1.40;;
7545;SDS011;3814;51.454;12.616;2022-09-09T06:57:50;3.65;;;1.40;;
7545;SDS011;3814;51.454;12.616;2022-09-09T07:00:16;5.13;;;1.40;;
7545;SDS011;3814;51.454;12.616;2022-09-09T07:02:41;2.58;;;1.40;;
7545;SDS011;3814;51.454;12.616;2022-09-09T07:05:07;3.38;;;1.25;;
7545;SDS011;3814;51.454;12.616;2022-09-09T07:07:33;3.47;;;1.45;;
7545;SDS011;3814;51.454;12.616;2022-09-09T07:09:58;3.22;;;1.40;;
7545;SDS011;3814;51.454;12.616;2022-09-09T07:12:24;2.80;;;1.40;;
7545;SDS011;3814;51.454;12.616;2022-09-09T07:14:49;5.22;;;1.60;;
7545;SDS011;3814;51.454;12.616;2022-09-09T07:17:14;4.53;;;1.63;;
7545;SDS011;3814;51.454;12.616;2022-09-09T07:19:39;3.40;;;1.60;;
7545;SDS011;3814;51.454;12.616;2022-09-09T07:22:05;4.65;;;1.50;;
7545;SDS011;3814;51.454;12.616;2022-09-09T07:24:31;4.93;;;1.50;;
7545;SDS011;3814;51.454;12.616;2022-09-09T07:26:57;7.25;;;1.42;;
7545;SDS011;3814;51.454;12.616;2022-09-09T07:29:24;4.07;;;1.30;;
7545;SDS011;3814;51.454;12.616;2022-09-09T07:31:49;5.60;;;1.42;;
7545;SDS011;3814;51.454;12.616;2022-09-09T07:34:15;4.72;;;1.60;;
7545;SDS011;3814;51.454;12.616;2022-09-09T07:36:40;4.03;;;1.33;;
7545;SDS011;3814;51.454;12.616;2022-09-09T07:39:08;3.28;;;1.40;;
7545;SDS011;3814;51.454;12.616;2022-09-09T07:41:45;4.25;;;1.30;;
7545;SDS011;3814;51.454;12.616;2022-09-09T07:44:16;3.45;;;1.35;;
7545;SDS011;3814;51.454;12.616;2022-09-09T07:46:44;3.53;;;1.30;;
7545;SDS011;3814;51.454;12.616;2022-09-09T07:49:10;4.60;;;1.20;;
7545;SDS011;3814;51.454;12.616;2022-09-09T07:51:40;2.83;;;1.25;;
7545;SDS011;3814;51.454;12.616;2022-09-09T07:54:08;2.80;;;1.10;;
7545;SDS011;3814;51.454;12.616;2022-09-09T07:56:36;2.30;;;1.25;;
7545;SDS011;3814;51.454;12.616;2022-09-09T07:59:02;3.15;;;1.20;;
7545;SDS011;3814;51.454;12.616;2022-09-09T08:01:32;2.97;;;1.17;;
7545;SDS011;3814;51.454;12.616;2022-09-09T08:04:03;4.93;;;1.23;;
7545;SDS011;3814;51.454;12.616;2022-09-09T08:06:31;3.17;;;1.20;;
7545;SDS011;3814;51.454;12.616;2022-09-09T08:08:58;5.32;;;1.70;;
7545;SDS011;3814;51.454;12.616;2022-09-09T08:11:24;6.57;;;2.20;;
7545;SDS011;3814;51.454;12.616;2022-09-09T08:13:51;3.67;;;1.73;;
7545;SDS011;3814;51.454;12.616;2022-09-09T08:16:18;5.40;;;1.60;;
7545;SDS011;3814;51.454;12.616;2022-09-09T08:18:48;5.63;;;1.65;;
7545;SDS011;3814;51.454;12.616;2022-09-09T08:21:16;3.42;;;1.58;;
7545;SDS011;3814;51.454;12.616;2022-09-09T08:23:46;4.70;;;1.50;;
7545;SDS011;3814;51.454;12.616;2022-09-09T08:28:42;3.75;;;1.40;;
7545;SDS011;3814;51.454;12.616;2022-09-09T08:31:08;3.33;;;1.58;;
7545;SDS011;3814;51.454;12.616;2022-09-09T08:33:36;3.75;;;1.10;;
7545;SDS011;3814;51.454;12.616;2022-09-09T08:36:03;2.72;;;1.33;;
7545;SDS011;3814;51.454;12.616;2022-09-09T08:38:29;2.80;;;1.17;;
7545;SDS011;3814;51.454;12.616;2022-09-09T08:40:55;5.10;;;1.10;;
7545;SDS011;3814;51.454;12.616;2022-09-09T08:43:28;4.53;;;1.38;;
7545;SDS011;3814;51.454;12.616;2022-09-09T08:45:56;2.92;;;1.20;;
7545;SDS011;3814;51.454;12.616;2022-09-09T08:48:41;2.65;;;1.40;;
7545;SDS011;3814;51.454;12.616;2022-09-09T08:51:11;3.38;;;1.25;;
7545;SDS011;3814;51.454;12.616;2022-09-09T08:53:47;2.85;;;1.02;;
7545;SDS011;3814;51.454;12.616;2022-09-09T08:56:14;3.70;;;1.20;;
7545;SDS011;3814;51.454;12.616;2022-09-09T08:58:50;5.15;;;1.38;;
7545;SDS011;3814;51.454;12.616;2022-09-09T09:01:39;5.53;;;1.20;;
7545;SDS011;3814;51.454;12.616;2022-09-09T09:10:20;4.22;;;1.23;;
7545;SDS011;3814;51.454;12.616;2022-09-09T09:12:41;3.30;;;1.08;;
7545;SDS011;3814;51.454;12.616;2022-09-09T09:15:17;4.00;;;1.10;;
7545;SDS011;3814;51.454;12.616;2022-09-09T09:17:44;2.65;;;1.05;;
7545;SDS011;3814;51.454;12.616;2022-09-09T09:20:16;3.85;;;1.05;;
7545;SDS011;3814;51.454;12.616;2022-09-09T09:22:47;5.50;;;1.30;;
7545;SDS011;3814;51.454;12.616;2022-09-09T09:25:21;5.50;;;1.30;;
7545;SDS011;3814;51.454;12.616;2022-09-09T09:27:58;4.85;;;1.10;;
7545;SDS011;3814;51.454;12.616;2022-09-09T09:30:38;4.20;;;1.15;;
7545;SDS011;3814;51.454;12.616;2022-09-09T09:33:14;2.40;;;1.00;;
7545;SDS011;3814;51.454;12.616;2022-09-09T09:35:42;4.43;;;1.20;;
7545;SDS011;3814;51.454;12.616;2022-09-09T09:38:18;4.60;;;1.08;;
7545;SDS011;3814;51.454;12.616;2022-09-09T09:40:51;3.55;;;1.08;;
7545;SDS011;3814;51.454;12.616;2022-09-09T09:43:21;2.35;;;1.00;;
7545;SDS011;3814;51.454;12.616;2022-09-09T09:45:48;3.67;;;1.30;;
7545;SDS011;3814;51.454;12.616;2022-09-09T09:48:14;3.67;;;1.00;;
7545;SDS011;3814;51.454;12.616;2022-09-09T09:51:13;2.42;;;1.10;;
7545;SDS011;3814;51.454;12.616;2022-09-09T09:53:34;2.95;;;1.15;;
7545;SDS011;3814;51.454;12.616;2022-09-09T09:56:05;6.65;;;1.00;;
7545;SDS011;3814;51.454;12.616;2022-09-09T09:58:35;2.50;;;0.90;;
7545;SDS011;3814;51.454;12.616;2022-09-09T10:01:03;5.68;;;1.10;;
7545;SDS011;3814;51.454;12.616;2022-09-09T10:03:29;3.40;;;1.00;;
7545;SDS011;3814;51.454;12.616;2022-09-09T10:05:56;4.40;;;0.93;;
7545;SDS011;3814;51.454;12.616;2022-09-09T10:08:23;3.40;;;1.10;;
7545;SDS011;3814;51.454;12.616;2022-09-09T10:13:39;2.92;;;1.17;;
7545;SDS011;3814;51.454;12.616;2022-09-09T10:16:31;4.45;;;1.25;;
7545;SDS011;3814;51.454;12.616;2022-09-09T10:19:13;2.92;;;0.93;;
7545;SDS011;3814;51.454;12.616;2022-09-09T10:21:53;3.92;;;1.10;;
7545;SDS011;3814;51.454;12.616;2022-09-09T10:32:45;2.25;;;1.08;;
7545;SDS011;3814;51.454;12.616;2022-09-09T10:35:14;3.75;;;1.00;;
7545;SDS011;3814;51.454;12.616;2022-09-09T10:38:00;2.45;;;0.95;;
7545;SDS011;3814;51.454;12.616;2022-09-09T10:46:17;3.47;;;1.13;;
7545;SDS011;3814;51.454;12.616;2022-09-09T10:56:55;6.38;;;1.48;;
7545;SDS011;3814;51.454;12.616;2022-09-09T10:59:25;4.60;;;1.00;;
7545;SDS011;3814;51.454;12.616;2022-09-09T11:02:04;3.80;;;1.10;;
7545;SDS011;3814;51.454;12.616;2022-09-09T11:04:51;3.40;;;1.33;;
7545;SDS011;3814;51.454;12.616;2022-09-09T11:07:37;5.10;;;1.20;;
7545;SDS011;3814;51.454;12.616;2022-09-09T11:10:11;1.90;;;0.90;;
7545;SDS011;3814;51.454;12.616;2022-09-09T11:12:43;2.65;;;1.10;;
7545;SDS011;3814;51.454;12.616;2022-09-09T11:15:17;4.68;;;1.27;;
7545;SDS011;3814;51.454;12.616;2022-09-09T11:17:49;2.85;;;1.15;;
7545;SDS011;3814;51.454;12.616;2022-09-09T11:20:17;3.13;;;1.27;;
7545;SDS011;3814;51.454;12.616;2022-09-09T11:22:45;2.45;;;1.10;;
7545;SDS011;3814;51.454;12.616;2022-09-09T11:25:15;4.40;;;1.02;;
7545;SDS011;3814;51.454;12.616;2022-09-09T11:36:16;5.72;;;1.20;;
7545;SDS011;3814;51.454;12.616;2022-09-09T11:38:50;2.90;;;1.10;;
7545;SDS011;3814;51.454;12.616;2022-09-09T11:41:17;2.95;;;1.10;;
7545;SDS011;3814;51.454;12.616;2022-09-09T11:43:46;4.10;;;1.30;;
7545;SDS011;3814;51.454;12.616;2022-09-09T11:46:14;3.92;;;1.25;;
7545;SDS011;3814;51.454;12.616;2022-09-09T11:48:45;1.95;;;1.08;;
7545;SDS011;3814;51.454;12.616;2022-09-09T11:51:27;4.22;;;1.30;;
7545;SDS011;3814;51.454;12.616;2022-09-09T11:56:45;4.80;;;1.30;;
7545;SDS011;3814;51.454;12.616;2022-09-09T11:59:24;2.75;;;1.25;;
7545;SDS011;3814;51.454;12.616;2022-09-09T12:04:30;3.35;;;1.20;;
7545;SDS011;3814;51.454;12.616;2022-09-09T12:07:00;4.00;;;1.30;;
7545;SDS011;3814;51.454;12.616;2022-09-09T12:09:33;2.85;;;1.15;;
7545;SDS011;3814;51.454;12.616;2022-09-09T12:12:06;3.00;;;1.20;;
7545;SDS011;3814;51.454;12.616;2022-09-09T12:17:36;1.95;;;1.20;;
7545;SDS011;3814;51.454;12.616;2022-09-09T12:25:53;4.45;;;1.08;;
7545;SDS011;3814;51.454;12.616;2022-09-09T12:28:24;4.30;;;1.20;;
7545;SDS011;3814;51.454;12.616;2022-09-09T12:30:58;4.90;;;1.10;;
7545;SDS011;3814;51.454;12.616;2022-09-09T12:33:33;4.03;;;1.15;;
7545;SDS011;3814;51.454;12.616;2022-09-09T12:35:59;3.85;;;1.20;;
7545;SDS011;3814;51.454;12.616;2022-09-09T12:38:36;3.47;;;1.05;;
7545;SDS011;3814;51.454;12.616;2022-09-09T12:41:03;2.40;;;1.15;;
7545;SDS011;3814;51.454;12.616;2022-09-09T12:43:28;3.60;;;1.10;;
7545;SDS011;3814;51.454;12.616;2022-09-09T12:45:56;4.07;;;1.20;;
7545;SDS011;3814;51.454;12.616;2022-09-09T12:48:34;2.20;;;1.02;;
7545;SDS011;3814;51.454;12.616;2022-09-09T12:51:01;2.45;;;0.90;;
7545;SDS011;3814;51.454;12.616;2022-09-09T12:53:37;4.25;;;1.33;;
7545;SDS011;3814;51.454;12.616;2022-09-09T12:56:07;3.78;;;1.13;;
7545;SDS011;3814;51.454;12.616;2022-09-09T12:58:35;2.95;;;1.00;;
7545;SDS011;3814;51.454;12.616;2022-09-09T13:01:02;3.85;;;1.10;;
7545;SDS011;3814;51.454;12.616;2022-09-09T13:03:30;2.55;;;1.33;;
7545;SDS011;3814;51.454;12.616;2022-09-09T13:06:10;3.13;;;1.05;;
7545;SDS011;3814;51.454;12.616;2022-09-09T13:08:42;3.20;;;1.05;;
7545;SDS011;3814;51.454;12.616;2022-09-09T13:11:10;5.32;;;1.35;;
7545;SDS011;3814;51.454;12.616;2022-09-09T13:13:40;4.20;;;1.02;;
7545;SDS011;3814;51.454;12.616;2022-09-09T13:16:15;4.07;;;1.00;;
7545;SDS011;3814;51.454;12.616;2022-09-09T13:18:58;3.25;;;1.10;;
7545;SDS011;3814;51.454;12.616;2022-09-09T13:21:32;6.05;;;1.27;;
7545;SDS011;3814;51.454;12.616;2022-09-09T13:24:02;4.22;;;1.00;;
7545;SDS011;3814;51.454;12.616;2022-09-09T13:26:29;3.63;;;1.15;;
7545;SDS011;3814;51.454;12.616;2022-09-09T13:28:55;3.05;;;1.10;;
7545;SDS011;3814;51.454;12.616;2022-09-09T13:31:43;4.40;;;1.17;;
7545;SDS011;3814;51.454;12.616;2022-09-09T13:34:30;4.30;;;1.10;;
7545;SDS011;3814;51.454;12.616;2022-09-09T13:37:01;1.75;;;1.10;;
7545;SDS011;3814;51.454;12.616;2022-09-09T13:39:28;2.25;;;1.00;;
7545;SDS011;3814;51.454;12.616;2022-09-09T13:41:54;3.15;;;1.05;;
7545;SDS011;3814;51.454;12.616;2022-09-09T13:44:21;3.80;;;1.00;;
7545;SDS011;3814;51.454;12.616;2022-09-09T13:47:02;4.68;;;1.23;;
7545;SDS011;3814;51.454;12.616;2022-09-09T13:49:41;2.35;;;1.17;;
7545;SDS011;3814;51.454;12.616;2022-09-09T13:52:10;2.53;;;1.00;;
7545;SDS011;3814;51.454;12.616;2022-09-09T13:54:38;3.70;;;1.10;;
7545;SDS011;3814;51.454;12.616;2022-09-09T13:57:03;5.18;;;1.13;;
7545;SDS011;3814;51.454;12.616;2022-09-09T13:59:29;3.40;;;0.85;;
7545;SDS011;3814;51.454;12.616;2022-09-09T14:01:55;2.97;;;0.90;;
7545;SDS011;3814;51.454;12.616;2022-09-09T14:04:21;3.58;;;1.10;;
7545;SDS011;3814;51.454;12.616;2022-09-09T14:06:46;2.42;;;1.20;;
7545;SDS011;3814;51.454;12.616;2022-09-09T14:09:13;6.68;;;1.10;;
7545;SDS011;3814;51.454;12.616;2022-09-09T14:11:40;2.03;;;0.90;;
7545;SDS011;3814;51.454;12.616;2022-09-09T14:14:05;2.92;;;0.93;;
7545;SDS011;3814;51.454;12.616;2022-09-09T14:16:30;2.85;;;0.90;;
7545;SDS011;3814;51.454;12.616;2022-09-09T14:18:56;4.88;;;1.02;;
7545;SDS011;3814;51.454;12.616;2022-09-09T14:21:22;3.22;;;0.93;;
7545;SDS011;3814;51.454;12.616;2022-09-09T14:23:47;2.08;;;1.00;;
7545;SDS011;3814;51.454;12.616;2022-09-09T14:26:13;2.58;;;1.15;;
7545;SDS011;3814;51.454;12.616;2022-09-09T14:28:39;3.60;;;0.90;;
7545;SDS011;3814;51.454;12.616;2022-09-09T14:31:05;2.47;;;0.80;;
7545;SDS011;3814;51.454;12.616;2022-09-09T14:33:31;4.38;;;1.17;;
7545;SDS011;3814;51.454;12.616;2022-09-09T14:35:56;4.72;;;0.73;;
7545;SDS011;3814;51.454;12.616;2022-09-09T14:38:22;2.45;;;0.60;;
7545;SDS011;3814;51.454;12.616;2022-09-09T14:40:48;3.13;;;0.60;;
7545;SDS011;3814;51.454;12.616;2022-09-09T14:43:13;1.27;;;0.50;;
7545;SDS011;3814;51.454;12.616;2022-09-09T14:45:39;3.00;;;0.57;;
7545;SDS011;3814;51.454;12.616;2022-09-09T14:48:04;2.35;;;0.60;;
7545;SDS011;3814;51.454;12.616;2022-09-09T14:50:29;1.73;;;0.50;;
7545;SDS011;3814;51.454;12.616;2022-09-09T14:52:55;2.38;;;0.50;;
7545;SDS011;3814;51.454;12.616;2022-09-09T14:55:20;2.80;;;0.70;;
7545;SDS011;3814;51.454;12.616;2022-09-09T14:57:46;1.63;;;0.57;;
7545;SDS011;3814;51.454;12.616;2022-09-09T15:00:11;0.82;;;0.50;;
7545;SDS011;3814;51.454;12.616;2022-09-09T15:02:38;3.00;;;0.68;;
7545;SDS011;3814;51.454;12.616;2022-09-09T15:05:04;1.77;;;0.68;;
7545;SDS011;3814;51.454;12.616;2022-09-09T15:07:30;1.92;;;0.60;;
7545;SDS011;3814;51.454;12.616;2022-09-09T15:09:56;0.90;;;0.43;;
7545;SDS011;3814;51.454;12.616;2022-09-09T15:12:22;1.55;;;0.70;;
7545;SDS011;3814;51.454;12.616;2022-09-09T15:14:47;1.45;;;0.60;;
7545;SDS011;3814;51.454;12.616;2022-09-09T15:17:13;1.65;;;0.57;;
7545;SDS011;3814;51.454;12.616;2022-09-09T15:19:38;0.95;;;0.60;;
7545;SDS011;3814;51.454;12.616;2022-09-09T15:22:04;3.63;;;0.70;;
7545;SDS011;3814;51.454;12.616;2022-09-09T15:24:30;3.05;;;0.60;;
7545;SDS011;3814;51.454;12.616;2022-09-09T15:26:56;2.90;;;0.80;;
7545;SDS011;3814;51.454;12.616;2022-09-09T15:29:22;2.17;;;0.60;;
7545;SDS011;3814;51.454;12.616;2022-09-09T15:31:48;2.63;;;0.70;;
7545;SDS011;3814;51.454;12.616;2022-09-09T15:34:13;2.55;;;0.80;;
7545;SDS011;3814;51.454;12.616;2022-09-09T15:36:41;1.88;;;0.73;;
7545;SDS011;3814;51.454;12.616;2022-09-09T15:39:12;1.77;;;0.70;;
7545;SDS011;3814;51.454;12.616;2022-09-09T15:41:40;0.75;;;0.52;;
7545;SDS011;3814;51.454;12.616;2022-09-09T15:44:07;2.58;;;0.70;;
7545;SDS011;3814;51.454;12.616;2022-09-09T15:49:04;2.05;;;0.73;;
7545;SDS011;3814;51.454;12.616;2022-09-09T15:51:33;2.67;;;0.77;;
7545;SDS011;3814;51.454;12.616;2022-09-09T15:53:58;1.25;;;0.60;;
7545;SDS011;3814;51.454;12.616;2022-09-09T15:56:25;3.50;;;0.85;;
7545;SDS011;3814;51.454;12.616;2022-09-09T15:58:52;3.85;;;0.80;;
7545;SDS011;3814;51.454;12.616;2022-09-09T16:01:18;1.58;;;0.68;;
7545;SDS011;3814;51.454;12.616;2022-09-09T16:03:44;2.20;;;0.80;;
7545;SDS011;3814;51.454;12.616;2022-09-09T16:06:11;1.52;;;0.60;;
7545;SDS011;3814;51.454;12.616;2022-09-09T16:08:39;2.13;;;0.70;;
7545;SDS011;3814;51.454;12.616;2022-09-09T16:11:17;4.47;;;1.00;;
7545;SDS011;3814;51.454;12.616;2022-09-09T16:13:48;2.97;;;0.80;;
7545;SDS011;3814;51.454;12.616;2022-09-09T16:16:15;2.42;;;0.80;;
7545;SDS011;3814;51.454;12.616;2022-09-09T16:18:42;1.25;;;0.70;;
7545;SDS011;3814;51.454;12.616;2022-09-09T16:21:14;1.42;;;0.70;;
7545;SDS011;3814;51.454;12.616;2022-09-09T16:23:42;2.67;;;0.90;;
7545;SDS011;3814;51.454;12.616;2022-09-09T16:26:11;2.90;;;0.80;;
7545;SDS011;3814;51.454;12.616;2022-09-09T16:31:08;1.58;;;0.70;;
7545;SDS011;3814;51.454;12.616;2022-09-09T16:33:36;2.92;;;1.08;;
7545;SDS011;3814;51.454;12.616;2022-09-09T16:36:05;5.57;;;1.10;;
7545;SDS011;3814;51.454;12.616;2022-09-09T16:38:32;4.00;;;0.90;;
7545;SDS011;3814;51.454;12.616;2022-09-09T16:40:59;3.40;;;0.90;;
7545;SDS011;3814;51.454;12.616;2022-09-09T16:43:25;2.00;;;0.90;;
7545;SDS011;3814;51.454;12.616;2022-09-09T16:45:53;1.58;;;0.70;;
7545;SDS011;3814;51.454;12.616;2022-09-09T16:48:21;2.40;;;0.80;;
7545;SDS011;3814;51.454;12.616;2022-09-09T16:50:47;2.63;;;0.70;;
7545;SDS011;3814;51.454;12.616;2022-09-09T16:53:14;1.67;;;0.70;;
7545;SDS011;3814;51.454;12.616;2022-09-09T16:55:40;1.45;;;0.70;;